Latest Weather Observations for Mount Moornapa

IDV60801

Issued at 2:02 am EST Sunday 6 September 2015 (issued every 30 minutes, with the page automatically refreshed every 10 minutes)

About weather observations | Map of weather stations | Latest weather observations for VIC | Other Formats
Station Details ID: 085296 Name: MOUNT MOORNAPA Lat: -37.75 Lon: 147.14 Height: 480.0 m
Data from the previous 72 hours. | See also: Recent months at Mount Moornapa
Date/Time
EST
Temp
°C
App
Temp
°C
Dew
Point
Rel
Hum
%
Delta-T
°C
Wind Press
QNH
hPa
Press
MSL
hPa
Rain
since 9 am
mm
Dir
 
Spd
km/h
Gust
km/h
Spd
kts
Gust
kts
06/02:00am 5.8 2.8 4.0 88 0.8 E 9 15 5 8 - - 0.0
06/01:30am 5.8 3.2 4.1 89 0.7 E 7 17 4 9 - - 0.0
06/01:00am 6.0 3.4 4.3 89 0.7 E 7 13 4 7 - - 0.0
06/12:30am 6.0 3.1 4.6 91 0.6 E 9 17 5 9 - - 0.0
06/12:00am 5.9 3.4 4.7 92 0.5 E 7 13 4 7 - - 0.0
 
Date/Time
EST
Temp
°C
App
Temp
°C
Dew
Point
Rel
Hum
%
Delta-T
°C
Wind Press
QNH
hPa
Press
MSL
hPa
Rain
since 9 am
mm
Dir
 
Spd
km/h
Gust
km/h
Spd
kts
Gust
kts
05/11:30pm 6.3 3.9 5.1 92 0.5 ENE 7 15 4 8 - - 0.0
05/11:00pm 6.1 3.6 4.9 92 0.5 E 7 13 4 7 - - 0.0
05/10:30pm 6.2 3.7 4.8 91 0.6 E 7 15 4 8 - - 0.0
05/10:00pm 6.5 4.2 4.7 88 0.8 E 6 11 3 6 - - 0.0
05/09:30pm 7.0 4.7 5.0 87 0.9 ENE 6 11 3 6 - - 0.0
05/09:00pm 6.9 4.7 5.4 90 0.7 NE 6 9 3 5 - - 0.0
05/08:30pm 6.5 4.4 5.9 96 0.3 E 6 9 3 5 - - 0.0
05/08:00pm 6.2 3.9 5.6 96 0.3 E 7 17 4 9 - - 0.0
05/07:30pm 6.4 4.1 5.7 95 0.3 E 7 17 4 9 - - 0.0
05/07:00pm 6.8 4.5 5.9 94 0.4 ESE 7 15 4 8 - - 0.0
05/06:30pm 7.1 5.0 5.9 92 0.6 ESE 6 13 3 7 - - 0.0
05/06:00pm 8.6 7.0 6.2 85 1.1 SE 4 9 2 5 - - 0.0
05/05:30pm 8.7 7.0 6.0 83 1.3 SSE 4 6 2 3 - - 0.0
05/05:00pm 10.3 9.1 6.3 76 1.9 S 2 4 1 2 - - 0.0
05/04:30pm 10.6 9.3 6.0 73 2.2 S 2 4 1 2 - - 0.0
05/04:00pm 11.3 9.7 6.4 72 2.4 SSE 4 6 2 3 - - 0.0
05/03:30pm 11.9 10.2 6.0 67 2.8 S 4 9 2 5 - - 0.0
05/03:00pm 12.5 10.9 6.5 67 2.9 SSW 4 11 2 6 - - 0.0
05/02:30pm 10.6 8.8 5.6 71 2.4 SSE 4 7 2 4 - - 0.0
05/02:00pm 11.4 9.8 6.5 72 2.4 SSE 4 9 2 5 - - 0.0
05/01:30pm 10.8 9.0 5.3 69 2.6 S 4 7 2 4 - - 0.0
05/01:00pm 10.3 8.2 5.7 73 2.2 S 6 11 3 6 - - 0.0
05/12:30pm 11.4 9.6 5.3 66 2.9 SSW 4 13 2 7 - - 0.0
05/12:00pm 11.0 8.8 5.1 67 2.8 SSW 6 13 3 7 - - 0.0
05/11:30am 10.4 8.1 5.6 72 2.3 SSW 7 15 4 8 - - 0.0
05/11:00am 9.3 7.1 5.5 77 1.8 SSE 6 11 3 6 - - 0.0
05/10:30am 8.4 6.9 4.8 78 1.6 S 2 6 1 3 - - 0.0
05/10:00am 8.4 7.2 4.8 78 1.6 CALM 0 6 0 3 - - 0.0
05/09:30am 7.6 5.2 4.4 80 1.4 WSW 6 13 3 7 - - 0.0
05/09:00am 7.6 4.6 4.2 79 1.5 WSW 9 19 5 10 - - 0.0
05/08:30am 7.2 3.8 4.0 80 1.4 W 11 22 6 12 - - 0.0
05/08:00am 6.9 3.5 3.9 81 1.3 W 11 22 6 12 - - 0.0
05/07:30am 6.8 2.9 3.6 80 1.4 W 13 22 7 12 - - 0.0
05/07:00am 6.2 3.1 3.4 82 1.2 WNW 9 17 5 9 - - 0.0
05/06:30am 5.2 1.6 2.9 85 1.0 W 11 19 6 10 - - 0.0
05/06:00am 5.5 2.3 2.8 83 1.1 W 9 17 5 9 - - 0.0
05/05:30am 6.1 2.5 3.1 81 1.3 W 11 20 6 11 - - 0.0
05/05:00am 5.3 2.1 3.2 86 0.9 WNW 9 19 5 10 - - 0.0
05/04:30am 4.4 1.3 3.4 93 0.4 NW 9 13 5 7 - - 0.0
05/04:00am 4.0 0.8 3.1 94 0.4 NW 9 13 5 7 - - 0.0
05/03:30am 5.5 1.9 2.8 83 1.1 W 11 20 6 11 - - 0.0
05/03:00am 6.0 2.4 3.0 81 1.3 WSW 11 19 6 10 - - 0.0
05/02:30am 5.4 2.6 3.3 86 0.9 W 7 20 4 11 - - 0.0
05/02:00am 5.2 3.0 3.2 87 0.9 NNW 4 7 2 4 - - 0.0
05/01:30am 5.5 3.4 3.7 88 0.8 N 4 7 2 4 - - 0.0
05/01:00am 5.1 2.4 3.6 90 0.6 N 7 9 4 5 - - 0.0
05/12:30am 5.3 3.1 3.5 88 0.8 NNW 4 7 2 4 - - 0.0
05/12:00am 4.8 2.0 3.3 90 0.6 NNW 7 9 4 5 - - 0.0
 
Date/Time
EST
Temp
°C
App
Temp
°C
Dew
Point
Rel
Hum
%
Delta-T
°C
Wind Press
QNH
hPa
Press
MSL
hPa
Rain
since 9 am
mm
Dir
 
Spd
km/h
Gust
km/h
Spd
kts
Gust
kts
04/11:30pm 5.4 2.1 2.6 82 1.2 W 9 19 5 10 - - 0.0
04/11:00pm 5.9 1.9 2.9 81 1.3 W 13 24 7 13 - - 0.0
04/10:30pm 5.9 2.4 3.4 84 1.1 W 11 22 6 12 - - 0.0
04/10:00pm 5.8 2.7 3.6 86 1.0 W 9 17 5 9 - - 0.0
04/09:30pm 5.7 2.7 3.9 88 0.8 W 9 20 5 11 - - 0.0
04/09:00pm 5.5 2.4 3.8 89 0.7 WSW 9 15 5 8 - - 0.0
04/08:30pm 5.5 2.8 3.8 89 0.7 SW 7 19 4 10 - - 0.0
04/08:00pm 5.5 2.8 3.7 88 0.8 SW 7 17 4 9 - - 0.0
04/07:30pm 5.6 3.4 3.6 87 0.9 SSW 4 9 2 5 - - 0.0
04/07:00pm 6.1 3.5 3.4 83 1.2 SSW 6 19 3 10 - - 0.0
04/06:30pm 6.1 3.5 3.3 82 1.2 SSW 6 13 3 7 - - 0.0
04/06:00pm 6.4 3.9 3.6 82 1.2 SW 6 15 3 8 - - 0.0
04/05:30pm 7.3 4.8 3.9 79 1.5 SSW 6 13 3 7 - - 0.0
04/05:00pm 8.0 5.5 3.8 75 1.9 S 6 17 3 9 - - 0.0
04/04:30pm 9.4 6.9 4.0 69 2.4 SSW 6 13 3 7 - - 0.0
04/04:00pm 9.3 6.8 3.5 67 2.6 S 6 9 3 5 - - 0.0
04/03:30pm 10.1 7.9 3.4 63 3.0 SSW 4 15 2 8 - - 0.0
04/03:00pm 10.5 8.5 4.2 65 2.9 SSW 4 9 2 5 - - 0.0
04/02:30pm 10.3 7.7 3.3 62 3.1 SSW 6 13 3 7 - - 0.0
04/02:00pm 10.0 7.6 4.2 67 2.6 S 6 13 3 7 - - 0.0
04/01:30pm 10.3 8.3 4.2 66 2.8 S 4 13 2 7 - - 0.0
04/01:00pm 9.6 7.1 3.8 67 2.6 S 6 9 3 5 - - 0.0
04/12:30pm 9.8 7.4 4.4 69 2.5 S 6 11 3 6 - - 0.0
04/12:00pm 10.3 7.9 4.5 67 2.7 SSW 6 15 3 8 - - 0.0
04/11:30am 8.8 7.0 3.6 70 2.3 SSW 2 6 1 3 - - 0.0
04/11:00am 8.7 6.2 3.7 71 2.2 SW 6 13 3 7 - - 0.0
04/10:30am 8.3 5.7 3.2 70 2.2 SW 6 15 3 8 - - 0.0
04/10:00am 7.6 4.4 2.9 72 2.0 WSW 9 22 5 12 - - 0.0
04/09:30am 7.0 3.8 2.9 75 1.8 WSW 9 20 5 11 - - 0.0
04/09:00am 6.2 2.6 2.8 79 1.4 WSW 11 20 6 11 - - 6.4
04/08:30am 5.4 1.6 1.9 78 1.4 WSW 11 24 6 13 - - 6.4
04/08:00am 5.0 1.6 1.7 79 1.4 WSW 9 17 5 9 - - 6.4
04/07:30am 4.9 1.5 1.7 80 1.3 WSW 9 15 5 8 - - 6.4
04/07:00am 4.8 1.4 1.7 80 1.3 WSW 9 19 5 10 - - 6.4
04/06:30am 4.6 1.2 2.0 83 1.1 SW 9 19 5 10 - - 6.4
04/06:00am 4.6 1.2 2.0 83 1.1 SW 9 22 5 12 - - 6.4
04/05:30am 4.8 1.0 2.0 82 1.2 WSW 11 17 6 9 - - 6.4
04/05:00am 4.6 1.2 2.0 83 1.1 WSW 9 20 5 11 - - 6.4
04/04:30am 4.4 1.0 1.8 83 1.1 W 9 15 5 8 - - 6.4
04/04:00am 4.4 0.6 1.9 84 1.0 W 11 17 6 9 - - 6.4
04/03:30am 4.5 1.2 2.2 85 0.9 WSW 9 17 5 9 - - 6.4
04/03:00am 4.8 1.2 2.8 87 0.8 WSW 11 22 6 12 - - 6.4
04/02:30am 4.9 1.9 3.9 93 0.4 SW 9 19 5 10 - - 6.2
04/02:00am 4.8 1.9 4.5 98 0.1 SW 9 19 5 10 - - 6.2
04/01:30am 4.8 2.5 4.7 99 0.0 SSW 6 11 3 6 - - 6.2
04/01:00am 4.9 2.5 4.5 97 0.2 SSW 6 13 3 7 - - 6.2
04/12:30am 5.2 2.9 4.8 97 0.2 SW 6 15 3 8 - - 6.2
04/12:00am 6.0 3.2 5.3 95 0.3 WSW 9 17 5 9 - - 6.2
 
Date/Time
EST
Temp
°C
App
Temp
°C
Dew
Point
Rel
Hum
%
Delta-T
°C
Wind Press
QNH
hPa
Press
MSL
hPa
Rain
since 9 am
mm
Dir
 
Spd
km/h
Gust
km/h
Spd
kts
Gust
kts
03/11:30pm 6.3 3.2 5.7 96 0.3 WSW 11 22 6 12 - - 6.2
03/11:00pm 6.8 4.7 6.7 99 0.0 WSW 7 13 4 7 - - 6.2
03/10:30pm 6.9 4.5 6.8 99 0.0 WSW 9 19 5 10 - - 6.2
03/10:00pm 6.9 4.5 6.8 99 0.0 WSW 9 19 5 10 - - 6.2
03/09:30pm 7.0 5.0 6.9 99 0.0 SW 7 17 4 9 - - 6.2
03/09:00pm 7.0 5.0 6.9 99 0.0 SW 7 19 4 10 - - 6.2
03/08:30pm 7.3 5.9 7.2 99 0.0 S 4 7 2 4 - - 6.2
03/08:00pm 7.8 6.1 7.7 99 0.0 S 6 13 3 7 - - 5.8
03/07:30pm 8.3 6.7 8.2 99 0.0 SSW 6 13 3 7 - - 5.6
03/07:00pm 8.5 6.4 8.4 99 0.0 SSE 9 13 5 7 - - 5.2
03/06:30pm 8.8 6.8 8.7 99 0.0 SSE 9 17 5 9 - - 3.4
03/06:00pm 9.1 8.1 8.8 98 0.2 SSE 4 13 2 7 - - 0.4
03/05:30pm 9.8 7.9 8.9 94 0.5 SSE 9 15 5 8 - - 0.0
03/05:00pm 10.9 9.4 8.5 85 1.2 S 6 13 3 7 - - 0.0
03/04:30pm 11.0 8.9 8.1 82 1.5 SW 9 20 5 11 - - 0.0
03/04:00pm 11.2 9.4 7.9 80 1.6 SW 7 17 4 9 - - 0.0
03/03:30pm 11.9 9.7 8.0 77 2.0 SSW 9 22 5 12 - - 0.0
03/03:00pm 12.5 10.7 7.8 73 2.4 SW 7 17 4 9 - - 0.0
03/02:30pm 11.9 10.0 7.4 74 2.2 SW 7 19 4 10 - - 0.0
03/02:00pm 12.9 11.0 7.4 69 2.7 SW 7 19 4 10 - - 0.0
03/01:30pm 11.8 9.7 6.7 71 2.5 SSW 7 22 4 12 - - 0.0
03/01:00pm 11.9 9.7 6.2 68 2.8 SSW 7 24 4 13 - - 0.0
03/12:30pm 12.5 10.5 7.2 70 2.6 SSW 7 20 4 11 - - 0.0
03/12:00pm 12.4 10.7 7.5 72 2.4 SSW 6 13 3 7 - - 0.0
03/11:30am 11.7 9.5 6.2 69 2.7 S 7 17 4 9 - - 0.0
03/11:00am 10.9 9.0 6.5 74 2.1 S 6 11 3 6 - - 0.0
03/10:30am 11.2 9.5 7.5 78 1.8 SSW 6 15 3 8 - - 0.0
03/10:00am 10.6 9.1 8.4 86 1.1 SW 6 17 3 9 - - 0.0
03/09:30am 9.4 7.9 8.3 93 0.5 SW 6 11 3 6 - - 0.0
03/09:00am 8.6 7.4 8.0 96 0.3 SSW 4 13 2 7 - - 0.0
03/08:30am 8.1 6.5 7.8 98 0.1 SW 6 15 3 8 - - 0.0
03/08:00am 8.0 6.3 7.7 98 0.1 SW 6 13 3 7 - - 0.0
03/07:30am 7.9 6.5 7.3 96 0.3 SSW 4 7 2 4 - - 0.0
03/07:00am 7.6 6.1 6.9 95 0.3 SSW 4 13 2 7 - - 0.0
03/06:30am 7.6 5.6 6.9 95 0.3 SW 7 15 4 8 - - 0.0
03/06:00am 7.5 5.8 7.4 99 0.0 SW 6 15 3 8 - - 0.0
03/05:30am 7.6 6.3 7.5 99 0.0 SSW 4 13 2 7 - - 0.0
03/05:00am 7.7 6.4 7.6 99 0.0 SSW 4 11 2 6 - - 0.0
03/04:30am 7.6 6.2 7.2 97 0.2 S 4 9 2 5 - - 0.0
03/04:00am 7.5 6.3 6.4 93 0.5 SSW 2 6 1 3 - - 0.0
03/03:30am 7.6 5.4 5.2 85 1.1 SW 6 7 3 4 - - 0.0
03/03:00am 7.8 5.9 4.7 81 1.4 SW 4 7 2 4 - - 0.0
03/02:30am 8.0 5.6 4.4 78 1.6 SW 6 9 3 5 - - 0.0

Other Formats:

Comma delimited format used in spreadsheet applications
http://www.bom.gov.au/fwo/IDV60801/IDV60801.95913.axf

JavaScript Object Notation format (JSON) in row-major order
http://www.bom.gov.au/fwo/IDV60801/IDV60801.95913.json